This is the latest recevied weather packets stored in our database for station/object Churanov. If no packets are shown the sender has not sent any weather packets the latest 1 day(s).
| Time | Temp. | Humidity | Pressure | Rain* | Wind** | Luminosity | Snow |
|---|---|---|---|---|---|---|---|
| 1778023032 | 10° C | 71% | - | - | 4.02 m/s, 240° | - | - |
| 1778019431 | 10° C | 87% | - | - | 2.24 m/s, 280° | - | - |
| 1778015848 | 11.11° C | 71% | - | - | 2.24 m/s, 240° | - | - |
| 1778012248 | 12.22° C | 66% | - | - | 4.02 m/s, 250° | - | - |
| 1778008649 | 12.78° C | 58% | - | - | 5.36 m/s, 240° | - | - |
| 1778005033 | 13.89° C | 62% | - | - | 0.89 m/s, 140° | - | - |
| 1778001433 | 16.11° C | 51% | - | - | 3.13 m/s, 110° | - | - |
| 1777997892 | 17.78° C | 42% | - | - | 2.24 m/s, 30° | - | - |
| 1777994231 | 18.89° C | 42% | - | - | 2.24 m/s, 60° | - | - |
| 1777990634 | 17.78° C | 42% | - | - | 3.13 m/s, 50° | - | - |
| 1777987033 | 17.22° C | 45% | - | - | 2.24 m/s, 30° | - | - |
| 1777983432 | 17.78° C | 45% | - | - | 2.24 m/s, 0° | - | - |
| 1777979832 | 17.22° C | 45% | - | - | 2.24 m/s, 350° | - | - |
| 1777976232 | 17.78° C | 36% | - | - | 2.24 m/s, 0° | - | - |
| 1777972632 | 17.22° C | 45% | - | - | 2.24 m/s, 0° | - | - |
| 1777969033 | 17.22° C | 45% | - | - | 2.24 m/s, 10° | - | - |
| 1777965432 | 16.11° C | 48% | - | - | 2.24 m/s, 320° | - | - |
| 1777961832 | 16.11° C | 44% | - | - | 0.89 m/s, 240° | - | - |
| 1777958232 | 12.22° C | 62% | - | - | 0.89 m/s, 230° | - | - |
| 1777954632 | 8.89° C | 70% | - | - | 3.13 m/s, 210° | - | - |
| 1777951032 | 10° C | 66% | - | - | 2.24 m/s, 220° | - | - |
| 1777947431 | 10° C | 66% | - | - | 3.13 m/s, 220° | - | - |
| 1777943834 | 10° C | 76% | - | - | 2.24 m/s, 140° | - | - |
| 1777940233 | 12.78° C | 62% | - | - | 0.89 m/s, 90° | - | - |
* Rain since midnight (hover to see other rain measurements)
** Current wind speed in m/s (hover to see current wind gust speed)